Time;durP1;ratioP1;P1;durP2;ratioP2;P2;SDS_P1;SDS_P2;PMS_P1;PMS_P2;Temp;Humidity;BMP_temperature;BMP_pressure;BME280_temperature;BME280_humidity;BME280_pressure;Samples;Min_cycle;Max_cycle;Signal;HPM_P1;HPM_P2
2022/11/23 00:01:16;;;;;;;30.07;15.73;;;;;;;;;;4400498;32;20609;-83
2022/11/23 00:03:43;;;;;;;28.00;16.37;;;;;;;;;;4402443;32;20608;-84
2022/11/23 00:06:12;;;;;;;27.67;16.30;;;;;;;;;;4402509;32;20213;-85
2022/11/23 00:08:39;;;;;;;29.80;15.77;;;;;;;;;;4402506;32;20547;-84
2022/11/23 00:11:06;;;;;;;25.77;15.80;;;;;;;;;;4402121;32;20341;-82
2022/11/23 00:13:34;;;;;;;25.67;15.13;;;;;;;;;;4402578;32;20302;-83
2022/11/23 00:16:00;;;;;;;19.93;13.47;;;;;;;;;;4402458;32;20209;-84
2022/11/23 00:18:27;;;;;;;20.93;14.63;;;;;;;;;;4402836;32;20255;-83
2022/11/23 00:20:54;;;;;;;25.43;15.07;;;;;;;;;;4402797;32;20274;-85
2022/11/23 00:23:22;;;;;;;25.87;15.83;;;;;;;;;;4402406;32;20302;-83
2022/11/23 00:25:49;;;;;;;24.47;13.67;;;;;;;;;;4402854;32;20253;-84
2022/11/23 00:28:15;;;;;;;22.97;13.63;;;;;;;;;;4402382;32;20369;-84
2022/11/23 00:30:42;;;;;;;19.50;10.70;;;;;;;;;;4399877;32;20274;-84
2022/11/23 00:33:09;;;;;;;26.73;15.73;;;;;;;;;;4385337;32;20265;-83
2022/11/23 00:35:35;;;;;;;24.70;14.43;;;;;;;;;;4401085;32;20877;-84
2022/11/23 00:38:02;;;;;;;22.70;12.50;;;;;;;;;;4402300;32;20233;-84
2022/11/23 00:40:30;;;;;;;19.43;11.53;;;;;;;;;;4402166;32;20302;-86
2022/11/23 00:42:57;;;;;;;22.70;12.83;;;;;;;;;;4402357;32;20597;-83
2022/11/23 00:45:24;;;;;;;26.37;14.37;;;;;;;;;;4402632;32;20237;-85
2022/11/23 00:47:50;;;;;;;22.30;12.60;;;;;;;;;;4402084;32;20237;-84
2022/11/23 00:50:17;;;;;;;20.77;13.97;;;;;;;;;;4402286;32;20216;-82
2022/11/23 00:52:44;;;;;;;23.47;13.63;;;;;;;;;;4402048;32;20280;-83
2022/11/23 00:55:11;;;;;;;23.30;11.33;;;;;;;;;;4403710;32;20213;-83
2022/11/23 00:57:39;;;;;;;17.17;11.57;;;;;;;;;;4405017;32;20312;-85
2022/11/23 01:00:07;;;;;;;17.17;11.70;;;;;;;;;;4400657;32;20307;-83
2022/11/23 01:02:35;;;;;;;14.60;10.90;;;;;;;;;;4405009;32;20291;-85
2022/11/23 01:05:02;;;;;;;23.33;13.30;;;;;;;;;;4404699;32;20225;-83
2022/11/23 01:07:30;;;;;;;22.70;13.23;;;;;;;;;;4405171;32;20245;-85
2022/11/23 01:09:57;;;;;;;18.27;11.80;;;;;;;;;;4404539;32;20282;-84
2022/11/23 01:12:24;;;;;;;21.20;12.50;;;;;;;;;;4405033;32;20228;-84
2022/11/23 01:14:54;;;;;;;22.77;13.53;;;;;;;;;;4405069;32;20682;-85
2022/11/23 01:17:20;;;;;;;20.27;12.17;;;;;;;;;;4404415;32;20649;-83
2022/11/23 01:19:47;;;;;;;21.93;12.40;;;;;;;;;;4404458;32;20233;-84
2022/11/23 01:22:14;;;;;;;21.07;11.97;;;;;;;;;;4405145;32;20350;-85
2022/11/23 01:24:41;;;;;;;21.93;13.20;;;;;;;;;;4404990;32;20232;-84
2022/11/23 01:27:08;;;;;;;23.50;13.50;;;;;;;;;;4404416;32;20233;-83
2022/11/23 01:29:35;;;;;;;17.10;11.60;;;;;;;;;;4404575;32;20365;-83
2022/11/23 01:32:03;;;;;;;26.43;15.00;;;;;;;;;;4391573;32;20252;-85
2022/11/23 01:34:29;;;;;;;29.17;16.07;;;;;;;;;;4389329;32;20300;-85
2022/11/23 01:36:56;;;;;;;20.27;12.93;;;;;;;;;;4389951;32;20769;-83
2022/11/23 01:39:23;;;;;;;20.27;12.97;;;;;;;;;;4402719;32;20309;-83
2022/11/23 01:41:49;;;;;;;23.73;13.60;;;;;;;;;;4404247;32;20651;-83
2022/11/23 01:44:26;;;;;;;24.80;15.40;;;;;;;;;;4404411;32;20353;-85
2022/11/23 01:46:53;;;;;;;26.17;17.83;;;;;;;;;;4404301;32;20237;-85
2022/11/23 01:49:22;;;;;;;34.53;21.17;;;;;;;;;;4404421;32;20266;-82
2022/11/23 01:51:51;;;;;;;29.63;20.70;;;;;;;;;;4404550;32;20236;-84
2022/11/23 01:54:24;;;;;;;39.40;23.80;;;;;;;;;;4404788;32;20225;-83
2022/11/23 01:56:55;;;;;;;31.30;22.13;;;;;;;;;;4404441;32;20319;-85
2022/11/23 01:59:23;;;;;;;27.30;19.70;;;;;;;;;;4393121;32;20510;-85
2022/11/23 02:01:50;;;;;;;36.03;21.70;;;;;;;;;;4388902;32;20233;-82
2022/11/23 02:04:22;;;;;;;33.77;22.50;;;;;;;;;;4388967;32;20367;-83
2022/11/23 02:06:49;;;;;;;22.77;16.17;;;;;;;;;;4389330;32;20230;-85
2022/11/23 02:09:17;;;;;;;18.43;12.13;;;;;;;;;;4389533;32;20314;-83
2022/11/23 02:11:43;;;;;;;10.90;8.93;;;;;;;;;;4403970;32;20298;-85
2022/11/23 02:14:10;;;;;;;18.43;9.57;;;;;;;;;;4404022;32;20271;-84
2022/11/23 02:16:38;;;;;;;20.00;12.17;;;;;;;;;;4403758;32;20241;-83
2022/11/23 02:19:08;;;;;;;24.20;13.50;;;;;;;;;;4403619;32;20296;-83
2022/11/23 02:21:36;;;;;;;13.77;8.57;;;;;;;;;;4404600;32;20485;-83
2022/11/23 02:24:08;;;;;;;14.03;8.97;;;;;;;;;;4416670;32;20205;-83
2022/11/23 02:26:37;;;;;;;18.23;10.00;;;;;;;;;;4422104;32;20313;-82
2022/11/23 02:29:07;;;;;;;14.80;8.87;;;;;;;;;;4418815;32;20566;-86
2022/11/23 02:31:34;;;;;;;11.63;8.27;;;;;;;;;;4402610;32;20237;-84
2022/11/23 02:34:01;;;;;;;12.10;8.00;;;;;;;;;;4393173;32;20222;-82
2022/11/23 02:36:35;;;;;;;7.40;6.57;;;;;;;;;;4389076;32;20583;-82
2022/11/23 02:39:06;;;;;;;10.87;7.43;;;;;;;;;;4399756;32;20302;-84
2022/11/23 02:41:37;;;;;;;11.43;7.40;;;;;;;;;;4403485;32;20758;-84
2022/11/23 02:44:09;;;;;;;15.03;7.43;;;;;;;;;;4403588;32;20209;-84
2022/11/23 02:46:35;;;;;;;10.40;7.47;;;;;;;;;;4403785;32;20245;-83
2022/11/23 02:49:02;;;;;;;11.90;8.53;;;;;;;;;;4403819;32;20326;-84
2022/11/23 02:51:29;;;;;;;13.40;8.27;;;;;;;;;;4403637;32;20233;-82
2022/11/23 02:53:55;;;;;;;14.67;9.37;;;;;;;;;;4403477;32;20321;-84
2022/11/23 02:56:22;;;;;;;16.27;8.50;;;;;;;;;;4400599;32;20759;-83
2022/11/23 02:58:50;;;;;;;10.03;7.63;;;;;;;;;;4403812;32;20221;-84
2022/11/23 03:01:17;;;;;;;13.50;9.80;;;;;;;;;;4403289;32;20311;-84
2022/11/23 03:03:44;;;;;;;15.60;9.87;;;;;;;;;;4403535;32;20749;-84
2022/11/23 03:06:10;;;;;;;17.07;10.00;;;;;;;;;;4403405;32;20229;-83
2022/11/23 03:08:37;;;;;;;17.63;10.73;;;;;;;;;;4403593;32;20287;-82
2022/11/23 03:11:04;;;;;;;17.47;9.97;;;;;;;;;;4402679;32;20365;-84
2022/11/23 03:13:31;;;;;;;17.43;10.40;;;;;;;;;;4403196;32;20727;-83
2022/11/23 03:15:59;;;;;;;13.60;9.47;;;;;;;;;;4403119;32;20297;-82
2022/11/23 03:18:26;;;;;;;17.10;11.50;;;;;;;;;;4402502;32;20249;-84
2022/11/23 03:20:52;;;;;;;15.20;11.03;;;;;;;;;;4403638;32;20239;-82
2022/11/23 03:23:19;;;;;;;13.87;9.50;;;;;;;;;;4395416;32;20674;-84
2022/11/23 03:25:46;;;;;;;16.40;9.90;;;;;;;;;;4388315;32;20214;-84
2022/11/23 03:28:12;;;;;;;16.73;10.53;;;;;;;;;;4388758;32;20237;-82
2022/11/23 03:30:39;;;;;;;14.20;10.23;;;;;;;;;;4400484;32;20639;-82
2022/11/23 03:33:07;;;;;;;17.47;9.87;;;;;;;;;;4385398;32;20233;-84
2022/11/23 03:35:34;;;;;;;15.00;10.93;;;;;;;;;;4387432;32;20694;-82
2022/11/23 03:38:01;;;;;;;18.37;11.70;;;;;;;;;;4387621;32;20229;-82
2022/11/23 03:40:27;;;;;;;18.97;13.57;;;;;;;;;;4387813;32;20292;-82
2022/11/23 03:42:54;;;;;;;16.00;11.23;;;;;;;;;;4387592;32;20314;-84
2022/11/23 03:45:21;;;;;;;13.97;7.93;;;;;;;;;;4387788;32;20267;-82
2022/11/23 03:47:47;;;;;;;12.60;7.27;;;;;;;;;;4387593;32;20343;-83
2022/11/23 03:50:16;;;;;;;13.93;8.67;;;;;;;;;;4387470;32;20250;-83
2022/11/23 03:52:42;;;;;;;18.97;12.63;;;;;;;;;;4399188;32;20670;-83
2022/11/23 03:55:10;;;;;;;21.87;13.80;;;;;;;;;;4402504;32;20352;-84
2022/11/23 03:57:36;;;;;;;20.67;15.17;;;;;;;;;;4402573;32;20232;-84
2022/11/23 04:00:05;;;;;;;13.57;9.90;;;;;;;;;;4403000;32;20221;-84
2022/11/23 04:02:32;;;;;;;12.97;6.90;;;;;;;;;;4402553;32;20271;-83
2022/11/23 04:05:00;;;;;;;7.37;4.23;;;;;;;;;;4402418;32;20631;-82
2022/11/23 04:07:28;;;;;;;5.63;3.93;;;;;;;;;;4402249;32;20323;-82
2022/11/23 04:09:54;;;;;;;6.37;4.27;;;;;;;;;;4402142;32;20298;-83
2022/11/23 04:12:21;;;;;;;10.97;5.80;;;;;;;;;;4402588;32;20264;-82
2022/11/23 04:14:48;;;;;;;10.40;6.57;;;;;;;;;;4402613;32;20862;-83
2022/11/23 04:17:14;;;;;;;12.23;6.20;;;;;;;;;;4402471;32;20252;-84
2022/11/23 04:19:41;;;;;;;9.50;6.87;;;;;;;;;;4402373;32;20278;-83
2022/11/23 04:22:08;;;;;;;13.80;6.37;;;;;;;;;;4402795;32;20344;-84
2022/11/23 04:24:36;;;;;;;16.50;8.43;;;;;;;;;;4402998;32;20588;-82
2022/11/23 04:27:03;;;;;;;14.27;8.20;;;;;;;;;;4402373;32;20236;-84
2022/11/23 04:29:30;;;;;;;12.57;7.60;;;;;;;;;;4402846;32;20665;-82
2022/11/23 04:31:56;;;;;;;17.43;9.87;;;;;;;;;;4392740;32;20226;-82
2022/11/23 04:34:23;;;;;;;11.97;7.43;;;;;;;;;;4390163;32;20279;-83
2022/11/23 04:36:50;;;;;;;13.77;6.57;;;;;;;;;;4390388;32;20279;-83
2022/11/23 04:39:17;;;;;;;14.57;6.07;;;;;;;;;;4402718;32;20233;-83
2022/11/23 04:41:45;;;;;;;13.30;8.90;;;;;;;;;;4405233;32;20236;-83
2022/11/23 04:44:11;;;;;;;11.43;7.93;;;;;;;;;;4405500;32;20292;-82
2022/11/23 04:46:38;;;;;;;10.10;6.97;;;;;;;;;;4391651;32;20320;-84
2022/11/23 04:49:05;;;;;;;10.57;7.30;;;;;;;;;;4417697;32;20595;-84
2022/11/23 04:51:32;;;;;;;6.23;5.60;;;;;;;;;;4417201;32;20346;-84
2022/11/23 04:53:59;;;;;;;7.50;4.70;;;;;;;;;;4404915;32;20381;-83
2022/11/23 04:56:25;;;;;;;6.07;5.20;;;;;;;;;;4404957;32;20341;-82
2022/11/23 04:58:53;;;;;;;14.10;8.37;;;;;;;;;;4405113;32;20225;-84
2022/11/23 05:01:20;;;;;;;9.57;6.43;;;;;;;;;;4405217;32;20271;-82
2022/11/23 05:03:47;;;;;;;11.07;8.07;;;;;;;;;;4404546;32;20238;-84
2022/11/23 05:06:14;;;;;;;13.53;6.97;;;;;;;;;;4405124;32;20286;-84
2022/11/23 05:08:41;;;;;;;10.30;7.23;;;;;;;;;;4405088;32;20225;-82
2022/11/23 05:11:07;;;;;;;9.97;7.43;;;;;;;;;;4404469;32;20234;-82
2022/11/23 05:13:34;;;;;;;9.10;7.00;;;;;;;;;;4405163;32;20226;-82
2022/11/23 05:16:02;;;;;;;18.20;11.87;;;;;;;;;;4395749;32;20234;-82
2022/11/23 05:18:29;;;;;;;15.60;12.33;;;;;;;;;;4389144;32;20300;-83
2022/11/23 05:20:56;;;;;;;23.70;17.37;;;;;;;;;;4390126;32;20221;-83
2022/11/23 05:23:23;;;;;;;29.47;18.33;;;;;;;;;;4389974;32;20238;-83
2022/11/23 05:25:49;;;;;;;24.03;16.37;;;;;;;;;;4389020;32;20284;-83
2022/11/23 05:28:18;;;;;;;29.23;17.67;;;;;;;;;;4396041;32;20237;-82
2022/11/23 05:30:45;;;;;;;21.83;15.30;;;;;;;;;;4400804;32;20221;-83
2022/11/23 05:33:13;;;;;;;16.97;12.50;;;;;;;;;;4387419;32;20261;-84
2022/11/23 05:35:40;;;;;;;9.97;7.83;;;;;;;;;;4389704;32;20229;-83
2022/11/23 05:38:07;;;;;;;15.60;7.20;;;;;;;;;;4394643;32;20796;-85
2022/11/23 05:40:34;;;;;;;14.73;9.67;;;;;;;;;;4404569;32;20213;-82
2022/11/23 05:43:00;;;;;;;18.87;11.37;;;;;;;;;;4403739;32;20294;-82
2022/11/23 05:45:27;;;;;;;25.20;13.97;;;;;;;;;;4403839;32;20257;-84
2022/11/23 05:47:57;;;;;;;21.80;11.80;;;;;;;;;;4404061;32;20233;-83
2022/11/23 05:50:27;;;;;;;21.10;11.87;;;;;;;;;;4404430;32;20279;-82
2022/11/23 05:52:56;;;;;;;22.67;12.83;;;;;;;;;;4404036;32;20241;-83
2022/11/23 05:55:23;;;;;;;28.90;15.77;;;;;;;;;;4404066;32;20264;-84
2022/11/23 05:57:50;;;;;;;26.20;14.87;;;;;;;;;;4403948;32;20312;-84
2022/11/23 06:00:17;;;;;;;23.53;15.37;;;;;;;;;;4400324;32;20230;-85
2022/11/23 06:02:44;;;;;;;23.07;14.57;;;;;;;;;;4403713;32;20237;-84
2022/11/23 06:05:11;;;;;;;20.43;12.33;;;;;;;;;;4403752;32;20267;-83
2022/11/23 06:07:39;;;;;;;18.97;12.77;;;;;;;;;;4403674;32;20705;-83
2022/11/23 06:10:06;;;;;;;18.67;11.90;;;;;;;;;;4403674;32;20283;-83
2022/11/23 06:12:34;;;;;;;21.13;12.93;;;;;;;;;;4403772;32;20307;-83
2022/11/23 06:15:00;;;;;;;24.63;12.53;;;;;;;;;;4403211;32;20225;-84
2022/11/23 06:17:27;;;;;;;21.50;13.63;;;;;;;;;;4402907;32;20309;-84
2022/11/23 06:19:54;;;;;;;26.07;15.10;;;;;;;;;;4403342;32;20302;-84
2022/11/23 06:22:21;;;;;;;33.57;16.03;;;;;;;;;;4408635;32;20467;-84
2022/11/23 06:24:49;;;;;;;25.73;16.57;;;;;;;;;;4419084;32;20576;-81
2022/11/23 06:27:16;;;;;;;36.07;20.33;;;;;;;;;;4420463;32;20201;-83
2022/11/23 06:29:43;;;;;;;51.60;31.80;;;;;;;;;;4414288;32;20422;-86
2022/11/23 06:32:10;;;;;;;53.37;35.00;;;;;;;;;;4396940;32;20771;-84
2022/11/23 06:34:37;;;;;;;49.10;30.27;;;;;;;;;;4388771;32;20225;-83
2022/11/23 06:37:03;;;;;;;56.40;30.70;;;;;;;;;;4390083;32;20312;-84
2022/11/23 06:39:30;;;;;;;49.77;32.37;;;;;;;;;;4404458;32;20230;-85
2022/11/23 06:41:58;;;;;;;52.00;33.50;;;;;;;;;;4404116;32;20241;-85
2022/11/23 06:44:25;;;;;;;47.63;32.10;;;;;;;;;;4402477;32;20216;-84
2022/11/23 06:46:52;;;;;;;45.17;31.03;;;;;;;;;;4403054;32;20306;-88
2022/11/23 06:49:20;;;;;;;53.80;35.63;;;;;;;;;;4402257;32;20590;-88
2022/11/23 06:51:47;;;;;;;58.07;37.27;;;;;;;;;;4402336;32;20287;-91
2022/11/23 06:54:14;;;;;;;82.77;46.43;;;;;;;;;;4401432;32;20268;-90
2022/11/23 06:56:41;;;;;;;63.80;41.47;;;;;;;;;;4402392;32;20232;-85
2022/11/23 06:59:12;;;;;;;42.17;27.00;;;;;;;;;;4408163;27;20348;-90
2022/11/23 07:01:39;;;;;;;32.20;22.53;;;;;;;;;;4402992;32;20226;-83
2022/11/23 07:04:05;;;;;;;33.67;23.10;;;;;;;;;;4402148;32;20295;-85
2022/11/23 07:06:32;;;;;;;23.80;18.80;;;;;;;;;;4403108;32;20225;-86
2022/11/23 07:08:59;;;;;;;26.63;16.53;;;;;;;;;;4402880;32;20302;-87
2022/11/23 07:11:25;;;;;;;17.20;12.80;;;;;;;;;;4402518;32;20291;-86
2022/11/23 07:13:52;;;;;;;18.80;13.47;;;;;;;;;;4402504;32;20298;-83
2022/11/23 07:16:20;;;;;;;28.30;18.40;;;;;;;;;;4402427;32;20274;-84
2022/11/23 07:18:47;;;;;;;21.30;14.07;;;;;;;;;;4401814;32;20286;-85
2022/11/23 07:21:14;;;;;;;21.00;14.40;;;;;;;;;;4402598;32;20221;-82
2022/11/23 07:23:40;;;;;;;22.53;15.07;;;;;;;;;;4402931;32;20373;-80
2022/11/23 07:26:08;;;;;;;20.70;13.57;;;;;;;;;;4402431;32;20229;-90
2022/11/23 07:28:35;;;;;;;19.43;13.23;;;;;;;;;;4403167;32;20245;-91
2022/11/23 07:31:01;;;;;;;17.00;12.57;;;;;;;;;;4397935;32;20293;-86
2022/11/23 07:33:30;;;;;;;13.73;10.80;;;;;;;;;;4399080;32;20241;-86
2022/11/23 07:35:56;;;;;;;24.67;14.73;;;;;;;;;;4406788;32;20224;-87
2022/11/23 07:38:23;;;;;;;36.10;21.17;;;;;;;;;;4409585;32;20238;-85
2022/11/23 07:40:51;;;;;;;33.30;21.87;;;;;;;;;;4401686;32;20221;-87
2022/11/23 07:43:17;;;;;;;24.10;16.17;;;;;;;;;;4401706;32;20585;-84
2022/11/23 07:45:44;;;;;;;15.87;11.53;;;;;;;;;;4402265;32;20734;-87
2022/11/23 07:48:12;;;;;;;14.97;11.33;;;;;;;;;;4401488;32;20382;-88
2022/11/23 07:50:40;;;;;;;19.37;12.53;;;;;;;;;;4402221;32;20229;-87
2022/11/23 07:53:07;;;;;;;24.53;16.73;;;;;;;;;;4409191;32;20252;-86
2022/11/23 07:55:34;;;;;;;11.40;8.90;;;;;;;;;;4417059;32;20217;-87
2022/11/23 07:58:01;;;;;;;13.03;9.60;;;;;;;;;;4417388;32;20372;-87
2022/11/23 08:00:29;;;;;;;11.70;8.83;;;;;;;;;;4416894;32;20236;-81
2022/11/23 08:02:57;;;;;;;11.10;9.20;;;;;;;;;;4416974;32;20221;-87
2022/11/23 08:05:25;;;;;;;12.77;10.20;;;;;;;;;;4408721;32;20237;-84
2022/11/23 08:07:58;;;;;;;13.60;9.10;;;;;;;;;;4406909;32;20616;-86
2022/11/23 08:10:25;;;;;;;18.90;11.50;;;;;;;;;;4413792;32;20241;-84
2022/11/23 08:12:52;;;;;;;17.53;10.73;;;;;;;;;;4421984;32;20249;-85
2022/11/23 08:15:19;;;;;;;19.80;14.90;;;;;;;;;;4422113;32;20306;-85
2022/11/23 08:17:46;;;;;;;22.33;15.73;;;;;;;;;;4421703;32;20274;-85
2022/11/23 08:20:13;;;;;;;23.60;17.33;;;;;;;;;;4422210;32;20689;-84
2022/11/23 08:22:40;;;;;;;29.10;18.50;;;;;;;;;;4422722;32;20216;-83
2022/11/23 08:25:09;;;;;;;22.70;16.97;;;;;;;;;;4422006;32;20310;-84
2022/11/23 08:27:35;;;;;;;23.97;15.97;;;;;;;;;;4422405;32;20253;-84
2022/11/23 08:30:02;;;;;;;15.83;11.17;;;;;;;;;;4422156;32;20290;-85
2022/11/23 08:32:29;;;;;;;21.90;14.53;;;;;;;;;;4422127;32;20600;-85
2022/11/23 08:34:56;;;;;;;21.60;13.50;;;;;;;;;;4422200;32;20945;-85
2022/11/23 08:37:22;;;;;;;18.07;12.17;;;;;;;;;;4412882;32;20363;-86
2022/11/23 08:39:49;;;;;;;20.50;11.63;;;;;;;;;;4422215;32;20260;-85
2022/11/23 08:42:17;;;;;;;19.70;11.70;;;;;;;;;;4421968;32;20659;-86
2022/11/23 08:44:44;;;;;;;15.17;9.40;;;;;;;;;;4420044;32;20723;-85
2022/11/23 08:47:11;;;;;;;10.10;6.90;;;;;;;;;;4421793;32;20296;-84
2022/11/23 08:49:37;;;;;;;12.33;8.37;;;;;;;;;;4422172;32;20261;-86
2022/11/23 08:52:04;;;;;;;10.17;6.40;;;;;;;;;;4423242;32;20213;-88
2022/11/23 08:54:32;;;;;;;9.23;5.60;;;;;;;;;;4421852;32;20795;-85
2022/11/23 08:56:58;;;;;;;11.73;6.07;;;;;;;;;;4421628;32;20268;-86
2022/11/23 08:59:26;;;;;;;7.00;5.50;;;;;;;;;;4420615;32;20693;-84
2022/11/23 09:01:53;;;;;;;10.67;6.60;;;;;;;;;;4421324;32;20801;-85
2022/11/23 09:04:20;;;;;;;8.37;6.33;;;;;;;;;;4421710;32;20281;-86
2022/11/23 09:06:46;;;;;;;8.50;5.00;;;;;;;;;;4421700;32;20302;-85
2022/11/23 09:09:13;;;;;;;11.87;6.63;;;;;;;;;;4421678;32;20245;-86
2022/11/23 09:11:40;;;;;;;7.33;4.53;;;;;;;;;;4421918;32;20232;-83
2022/11/23 09:14:07;;;;;;;8.73;5.80;;;;;;;;;;4422058;32;20228;-88
2022/11/23 09:16:35;;;;;;;11.27;5.73;;;;;;;;;;4418966;32;20633;-84
2022/11/23 09:19:02;;;;;;;11.70;6.57;;;;;;;;;;4419722;32;20233;-84
2022/11/23 09:21:32;;;;;;;10.53;6.07;;;;;;;;;;4419769;32;20244;-83
2022/11/23 09:23:59;;;;;;;11.83;6.40;;;;;;;;;;4419293;32;20281;-85
2022/11/23 09:26:26;;;;;;;12.03;5.57;;;;;;;;;;4419754;32;20613;-84
2022/11/23 09:28:54;;;;;;;17.37;9.87;;;;;;;;;;4419583;32;20233;-83
2022/11/23 09:31:22;;;;;;;13.27;8.00;;;;;;;;;;4419158;32;20327;-84
2022/11/23 09:33:53;;;;;;;14.10;7.80;;;;;;;;;;4408532;32;20222;-88
2022/11/23 09:36:21;;;;;;;10.20;6.70;;;;;;;;;;4414854;32;20741;-87
2022/11/23 09:38:48;;;;;;;12.43;7.50;;;;;;;;;;4409806;32;20247;-81
2022/11/23 09:41:50;;;;;;;10.07;6.73;;;;;;;;;;4403960;32;20333;-85
2022/11/23 09:44:24;;;;;;;9.97;6.43;;;;;;;;;;4404373;32;20303;-82
2022/11/23 09:47:04;;;;;;;10.80;6.37;;;;;;;;;;4417987;32;20838;-82
2022/11/23 09:49:40;;;;;;;14.17;6.70;;;;;;;;;;4419346;32;20270;-83
2022/11/23 09:52:16;;;;;;;13.23;6.87;;;;;;;;;;4419036;32;20376;-86
2022/11/23 09:54:45;;;;;;;10.60;5.70;;;;;;;;;;4419150;32;20731;-86
2022/11/23 09:57:16;;;;;;;10.20;6.20;;;;;;;;;;4410517;32;20320;-81
2022/11/23 09:59:48;;;;;;;12.83;5.43;;;;;;;;;;4403890;32;20234;-80
2022/11/23 10:02:23;;;;;;;10.37;5.83;;;;;;;;;;4403780;32;20295;-87
2022/11/23 10:04:55;;;;;;;12.27;6.47;;;;;;;;;;4404222;32;20216;-85
2022/11/23 10:07:41;;;;;;;13.40;6.27;;;;;;;;;;4403692;32;20632;-83
2022/11/23 10:10:21;;;;;;;11.23;6.03;;;;;;;;;;4407618;32;20265;-85
2022/11/23 10:12:56;;;;;;;9.07;5.93;;;;;;;;;;4419070;32;20240;-83
2022/11/23 10:15:28;;;;;;;8.80;5.70;;;;;;;;;;4418635;32;20240;-82
2022/11/23 10:18:24;;;;;;;11.67;5.50;;;;;;;;;;4418564;32;20227;-81
2022/11/23 10:21:07;;;;;;;12.10;6.77;;;;;;;;;;4418083;32;20321;-84
2022/11/23 10:23:53;;;;;;;11.67;5.97;;;;;;;;;;4426157;32;20196;-82
2022/11/23 10:26:21;;;;;;;10.23;6.80;;;;;;;;;;4427877;32;20566;-82
2022/11/23 10:28:50;;;;;;;9.97;5.60;;;;;;;;;;4415564;32;20225;-82
2022/11/23 10:31:19;;;;;;;12.47;5.10;;;;;;;;;;4411296;32;20237;-86
2022/11/23 10:33:55;;;;;;;13.00;5.77;;;;;;;;;;4405189;32;20728;-81
2022/11/23 10:36:23;;;;;;;12.80;6.67;;;;;;;;;;4414626;32;20323;-85
2022/11/23 10:38:52;;;;;;;15.50;5.97;;;;;;;;;;4408332;32;20306;-85
2022/11/23 10:41:19;;;;;;;12.13;6.03;;;;;;;;;;4406696;32;20233;-84
2022/11/23 10:43:50;;;;;;;14.17;7.97;;;;;;;;;;4417848;32;20614;-84
2022/11/23 10:46:26;;;;;;;10.80;7.30;;;;;;;;;;4417566;32;20233;-83
2022/11/23 10:48:54;;;;;;;11.33;6.77;;;;;;;;;;4417981;32;20236;-84
2022/11/23 10:51:28;;;;;;;14.90;8.70;;;;;;;;;;4418285;32;20287;-83
2022/11/23 10:53:59;;;;;;;12.23;8.43;;;;;;;;;;4406334;32;20233;-84
2022/11/23 10:56:27;;;;;;;16.23;9.63;;;;;;;;;;4402729;32;20667;-88
2022/11/23 10:58:54;;;;;;;19.57;10.20;;;;;;;;;;4402454;32;20279;-82
2022/11/23 11:01:23;;;;;;;14.47;10.63;;;;;;;;;;4402463;32;20260;-84
2022/11/23 11:03:50;;;;;;;17.80;9.73;;;;;;;;;;4402689;32;20216;-87
2022/11/23 11:06:24;;;;;;;13.13;10.13;;;;;;;;;;4402452;32;20260;-81
2022/11/23 11:08:53;;;;;;;13.47;9.67;;;;;;;;;;4403029;32;20244;-82
2022/11/23 11:11:24;;;;;;;21.10;11.07;;;;;;;;;;4416066;32;20241;-81
2022/11/23 11:13:51;;;;;;;14.90;8.77;;;;;;;;;;4418184;32;20221;-86
2022/11/23 11:16:21;;;;;;;15.40;9.70;;;;;;;;;;4417345;32;20297;-84
2022/11/23 11:18:48;;;;;;;19.40;11.90;;;;;;;;;;4417861;32;20229;-86
2022/11/23 11:21:20;;;;;;;14.70;9.00;;;;;;;;;;4417466;32;20241;-83
2022/11/23 11:23:52;;;;;;;16.93;9.33;;;;;;;;;;4418286;32;20320;-87
2022/11/23 11:26:22;;;;;;;23.17;9.63;;;;;;;;;;4418004;32;20643;-86
2022/11/23 11:28:51;;;;;;;31.23;17.40;;;;;;;;;;4418984;32;20221;-88
2022/11/23 11:31:49;;;;;;;34.10;16.57;;;;;;;;;;4417659;32;20265;-88
2022/11/23 11:34:23;;;;;;;46.53;14.83;;;;;;;;;;4403077;32;20512;-86
2022/11/23 11:36:57;;;;;;;29.73;14.87;;;;;;;;;;4400495;32;20240;-85
2022/11/23 11:39:30;;;;;;;24.13;10.80;;;;;;;;;;4417309;32;20319;-88
2022/11/23 11:42:00;;;;;;;11.57;4.63;;;;;;;;;;4418841;32;20257;-84
2022/11/23 11:44:28;;;;;;;9.00;3.00;;;;;;;;;;4419606;32;20269;-85
2022/11/23 11:46:59;;;;;;;4.70;2.37;;;;;;;;;;4417068;32;20236;-90
2022/11/23 11:49:30;;;;;;;5.90;2.43;;;;;;;;;;4417029;32;20694;-87
2022/11/23 11:52:03;;;;;;;3.37;1.70;;;;;;;;;;4417478;32;20593;-88
2022/11/23 11:54:41;;;;;;;2.97;1.70;;;;;;;;;;4418524;32;20279;-85
2022/11/23 11:57:19;;;;;;;3.70;1.83;;;;;;;;;;4417873;32;20348;-90
2022/11/23 11:59:49;;;;;;;4.53;2.33;;;;;;;;;;4417693;32;20290;-87
2022/11/23 12:02:22;;;;;;;5.40;2.10;;;;;;;;;;4419973;32;20771;-86
2022/11/23 12:04:58;;;;;;;4.67;2.63;;;;;;;;;;4420920;32;20241;-89
2022/11/23 12:07:32;;;;;;;12.43;7.47;;;;;;;;;;4417300;32;20589;-84
2022/11/23 12:10:06;;;;;;;22.27;9.50;;;;;;;;;;4418027;32;20279;-84
2022/11/23 12:12:35;;;;;;;18.20;9.17;;;;;;;;;;4417623;32;20274;-87
2022/11/23 12:15:02;;;;;;;18.20;8.83;;;;;;;;;;4417424;32;20235;-86
2022/11/23 12:18:15;;;;;;;13.77;9.27;;;;;;;;;;4417358;32;20244;-86
2022/11/23 12:20:51;;;;;;;14.97;8.60;;;;;;;;;;4354829;33;20246;-86
2022/11/23 12:23:27;;;;;;;20.10;11.10;;;;;;;;;;4403547;32;20245;-84
2022/11/23 12:26:10;;;;;;;9.90;5.70;;;;;;;;;;4403321;32;20329;-88
2022/11/23 12:29:06;;;;;;;14.80;8.40;;;;;;;;;;4408993;32;20242;-84
2022/11/23 12:31:42;;;;;;;28.23;13.47;;;;;;;;;;4400044;32;20283;-85
2022/11/23 12:34:36;;;;;;;35.10;16.13;;;;;;;;;;4407717;32;20257;-81
2022/11/23 12:37:26;;;;;;;25.00;14.23;;;;;;;;;;4399897;32;20271;-81
2022/11/23 12:40:21;;;;;;;17.93;9.90;;;;;;;;;;4401266;32;20226;-86
2022/11/23 12:42:51;;;;;;;19.93;9.60;;;;;;;;;;4402584;32;20270;-87
2022/11/23 12:45:28;;;;;;;24.17;11.53;;;;;;;;;;4400731;32;20285;-85
2022/11/23 12:48:04;;;;;;;21.20;9.70;;;;;;;;;;4402186;32;20762;-81
2022/11/23 12:50:36;;;;;;;16.40;8.40;;;;;;;;;;4403129;32;20694;-84
2022/11/23 12:53:15;;;;;;;40.10;20.67;;;;;;;;;;4405402;32;20298;-89
2022/11/23 12:55:52;;;;;;;28.10;13.90;;;;;;;;;;4405041;32;20282;-80
2022/11/23 12:58:25;;;;;;;22.03;11.70;;;;;;;;;;4405234;32;20232;-85
2022/11/23 13:00:56;;;;;;;32.50;12.33;;;;;;;;;;4404114;32;20305;-86
2022/11/23 13:03:56;;;;;;;28.57;11.43;;;;;;;;;;4405384;32;20225;-86
2022/11/23 13:06:54;;;;;;;25.77;12.97;;;;;;;;;;4404915;32;20648;-87
2022/11/23 13:09:35;;;;;;;36.87;20.03;;;;;;;;;;4405848;32;20309;-89
2022/11/23 13:12:26;;;;;;;22.90;15.30;;;;;;;;;;4419619;32;20295;-84
2022/11/23 13:15:03;;;;;;;25.70;14.50;;;;;;;;;;4420517;32;20237;-84
2022/11/23 13:17:39;;;;;;;5.50;2.80;;;;;;;;;;4419588;32;20298;-88
2022/11/23 13:20:20;;;;;;;7.40;2.17;;;;;;;;;;4420445;32;20228;-82
2022/11/23 13:22:47;;;;;;;12.13;6.57;;;;;;;;;;4420244;32;20230;-86
2022/11/23 13:25:20;;;;;;;18.60;9.27;;;;;;;;;;4421289;32;20312;-86
2022/11/23 13:27:57;;;;;;;18.87;9.13;;;;;;;;;;4417607;32;20237;-90
2022/11/23 13:30:34;;;;;;;14.27;6.73;;;;;;;;;;4410511;32;20281;-88
2022/11/23 13:33:23;;;;;;;7.40;3.33;;;;;;;;;;4420279;32;20244;-86
2022/11/23 13:36:00;;;;;;;6.03;2.60;;;;;;;;;;4412242;32;20241;-81
2022/11/23 13:38:44;;;;;;;7.23;3.10;;;;;;;;;;4412836;32;20248;-87
2022/11/23 13:41:54;;;;;;;9.67;4.10;;;;;;;;;;4417812;32;20264;-86
2022/11/23 13:44:24;;;;;;;9.93;4.43;;;;;;;;;;4405031;32;20237;-88
2022/11/23 13:47:01;;;;;;;8.30;4.13;;;;;;;;;;4403889;32;20237;-85
2022/11/23 13:49:34;;;;;;;11.57;5.40;;;;;;;;;;4404331;32;20657;-88
2022/11/23 13:52:26;;;;;;;7.03;3.87;;;;;;;;;;4404275;32;20245;-86
2022/11/23 13:54:56;;;;;;;16.63;7.93;;;;;;;;;;4402157;32;20261;-87
2022/11/23 13:57:23;;;;;;;12.77;7.07;;;;;;;;;;4404626;32;20326;-86
2022/11/23 13:59:50;;;;;;;12.47;8.17;;;;;;;;;;4403431;32;20237;-82
2022/11/23 14:02:28;;;;;;;10.30;6.83;;;;;;;;;;4403826;32;20287;-89
2022/11/23 14:05:28;;;;;;;11.27;6.23;;;;;;;;;;4404232;32;20348;-88
2022/11/23 14:07:54;;;;;;;14.90;6.00;;;;;;;;;;4404333;32;20296;-87
2022/11/23 14:10:24;;;;;;;14.40;7.13;;;;;;;;;;4410960;32;20225;-87
2022/11/23 14:12:56;;;;;;;19.93;8.50;;;;;;;;;;4419303;32;20645;-87
2022/11/23 14:15:26;;;;;;;21.80;14.47;;;;;;;;;;4418064;32;20259;-89
2022/11/23 14:18:24;;;;;;;21.23;11.77;;;;;;;;;;4417581;32;20225;-88
2022/11/23 14:21:11;;;;;;;32.40;12.37;;;;;;;;;;4418171;32;20593;-89
2022/11/23 14:23:54;;;;;;;23.73;12.80;;;;;;;;;;4431002;32;20229;-89
2022/11/23 14:26:31;;;;;;;21.83;12.73;;;;;;;;;;4436044;32;20220;-87
2022/11/23 14:29:19;;;;;;;33.90;14.30;;;;;;;;;;4429527;32;20574;-90
2022/11/23 14:31:57;;;;;;;27.33;13.50;;;;;;;;;;4426632;32;20251;-89
2022/11/23 14:34:35;;;;;;;17.37;10.60;;;;;;;;;;4428335;32;20345;-89
2022/11/23 14:37:13;;;;;;;18.43;10.03;;;;;;;;;;4409377;32;20252;-90
2022/11/23 14:39:52;;;;;;;19.30;10.50;;;;;;;;;;4405154;32;20622;-90
2022/11/23 14:42:23;;;;;;;19.40;11.03;;;;;;;;;;4403328;32;20310;-89